createdAt,value
2024-05-09T00:00:43.486Z,100.00
2024-05-09T00:03:11.782Z,100.00
2024-05-09T00:05:40.849Z,100.00
2024-05-09T00:08:09.003Z,100.00
2024-05-09T00:10:38.594Z,100.00
2024-05-09T00:13:10.999Z,100.00
2024-05-09T00:15:38.616Z,100.00
2024-05-09T00:18:07.503Z,100.00
2024-05-09T00:20:39.111Z,100.00
2024-05-09T00:23:08.847Z,100.00
2024-05-09T00:25:36.440Z,100.00
2024-05-09T00:28:06.173Z,100.00
2024-05-09T00:30:37.156Z,100.00
2024-05-09T00:33:06.321Z,100.00
2024-05-09T00:35:34.729Z,100.00
2024-05-09T00:38:02.050Z,100.00
2024-05-09T00:40:41.736Z,100.00
2024-05-09T00:43:11.250Z,100.00
2024-05-09T00:45:41.406Z,100.00
2024-05-09T00:48:11.075Z,100.00
2024-05-09T00:50:41.917Z,100.00
2024-05-09T00:53:11.807Z,100.00
2024-05-09T00:55:40.336Z,100.00
2024-05-09T00:58:08.864Z,100.00
2024-05-09T01:00:39.814Z,100.00
2024-05-09T01:03:12.861Z,100.00
2024-05-09T01:05:41.759Z,100.00
2024-05-09T01:08:09.903Z,100.00
2024-05-09T01:10:37.518Z,100.00
2024-05-09T01:13:05.527Z,100.00
2024-05-09T01:15:33.124Z,100.00
2024-05-09T01:18:06.521Z,100.00
2024-05-09T01:20:41.613Z,100.00
2024-05-09T01:23:15.920Z,100.00
2024-05-09T01:25:44.356Z,100.00
2024-05-09T01:28:12.061Z,100.00
2024-05-09T01:30:39.146Z,100.00
2024-05-09T01:33:10.243Z,100.00
2024-05-09T01:35:41.265Z,100.00
2024-05-09T01:38:10.090Z,100.00
2024-05-09T01:40:40.535Z,100.00
2024-05-09T01:43:08.571Z,100.00
2024-05-09T01:45:36.629Z,100.00
2024-05-09T01:48:04.737Z,100.00
2024-05-09T01:53:01.995Z,100.00
2024-05-09T01:55:29.107Z,100.00
2024-05-09T01:57:58.701Z,100.00
2024-05-09T02:00:36.891Z,100.00
2024-05-09T02:03:08.756Z,100.00
2024-05-09T02:05:36.191Z,100.00
2024-05-09T02:08:03.569Z,100.00
2024-05-09T02:10:32.947Z,100.00
2024-05-09T02:13:03.257Z,100.00
2024-05-09T02:15:30.208Z,100.00
2024-05-09T02:17:59.093Z,100.00
2024-05-09T02:20:33.855Z,100.00
2024-05-09T02:23:05.093Z,100.00
2024-05-09T02:25:32.986Z,100.00
2024-05-09T02:28:02.812Z,100.00
2024-05-09T02:30:38.658Z,100.00
2024-05-09T02:33:09.880Z,100.00
2024-05-09T02:35:38.771Z,100.00
2024-05-09T02:38:05.889Z,100.00
2024-05-09T02:40:37.222Z,100.00
2024-05-09T02:43:12.376Z,100.00
2024-05-09T02:45:40.576Z,100.00
2024-05-09T02:48:11.207Z,100.00
2024-05-09T02:50:40.815Z,100.00
2024-05-09T02:53:08.922Z,100.00
2024-05-09T02:55:37.239Z,100.00
2024-05-09T02:58:04.519Z,100.00
2024-05-09T03:00:38.971Z,100.00
2024-05-09T03:03:10.487Z,100.00
2024-05-09T03:05:40.150Z,100.00
2024-05-09T03:08:07.820Z,100.00
2024-05-09T03:10:37.148Z,100.00
2024-05-09T03:13:06.641Z,100.00
2024-05-09T03:15:36.506Z,100.00
2024-05-09T03:18:04.294Z,100.00
2024-05-09T03:20:34.815Z,100.00
2024-05-09T03:23:06.389Z,100.00
2024-05-09T03:25:33.528Z,100.00
2024-05-09T03:28:00.700Z,100.00
2024-05-09T03:30:38.889Z,100.00
2024-05-09T03:33:14.072Z,100.00
2024-05-09T03:35:43.188Z,100.00
2024-05-09T03:38:10.221Z,100.00
2024-05-09T03:40:43.939Z,100.00
2024-05-09T03:43:10.974Z,100.00
2024-05-09T03:45:38.068Z,100.00
2024-05-09T03:48:05.664Z,100.00
2024-05-09T03:50:36.569Z,100.00
2024-05-09T03:53:04.751Z,100.00
2024-05-09T03:55:31.888Z,100.00
2024-05-09T03:57:59.434Z,100.00
2024-05-09T04:00:35.075Z,100.00
2024-05-09T04:03:07.693Z,100.00
2024-05-09T04:05:41.617Z,100.00
2024-05-09T04:08:10.274Z,100.00
2024-05-09T04:10:37.835Z,100.00
2024-05-09T04:13:05.453Z,100.00
2024-05-09T04:15:32.864Z,100.00
2024-05-09T04:18:01.072Z,100.00
2024-05-09T04:20:36.710Z,100.00
2024-05-09T04:23:11.846Z,100.00
2024-05-09T04:25:41.894Z,100.00
2024-05-09T04:28:08.895Z,100.00
2024-05-09T04:30:39.321Z,100.00
2024-05-09T04:33:11.860Z,100.00
2024-05-09T04:35:42.634Z,100.00
2024-05-09T04:38:14.105Z,100.00
2024-05-09T04:40:41.865Z,100.00
2024-05-09T04:43:15.166Z,100.00
2024-05-09T04:45:42.458Z,100.00
2024-05-09T04:48:09.654Z,100.00
2024-05-09T04:50:39.012Z,100.00
2024-05-09T04:53:08.651Z,100.00
2024-05-09T04:55:40.701Z,100.00
2024-05-09T04:58:08.769Z,100.00
2024-05-09T05:00:37.912Z,100.00
2024-05-09T05:03:13.042Z,100.00
2024-05-09T05:05:43.644Z,100.00
2024-05-09T05:08:12.593Z,100.00
2024-05-09T05:10:43.290Z,100.00
2024-05-09T05:13:17.861Z,100.00
2024-05-09T05:15:46.111Z,100.00
2024-05-09T05:18:13.526Z,100.00
2024-05-09T05:20:40.894Z,100.00
2024-05-09T05:23:10.770Z,100.00
2024-05-09T05:25:38.129Z,100.00
2024-05-09T05:28:07.986Z,100.00
2024-05-09T05:30:37.599Z,100.00
2024-05-09T05:33:06.335Z,100.00
2024-05-09T05:35:34.714Z,100.00
2024-05-09T05:38:04.818Z,100.00
2024-05-09T05:40:36.610Z,100.00
2024-05-09T05:43:09.112Z,100.00
2024-05-09T05:45:36.485Z,100.00
2024-05-09T05:48:05.940Z,100.00
2024-05-09T05:50:36.545Z,100.00
2024-05-09T05:53:06.804Z,100.00
2024-05-09T05:55:34.151Z,100.00
2024-05-09T05:58:01.369Z,100.00
2024-05-09T06:03:02.347Z,100.00
2024-05-09T06:05:29.631Z,100.00
2024-05-09T06:07:56.615Z,100.00
2024-05-09T06:10:29.684Z,100.00
2024-05-09T06:13:02.067Z,100.00
2024-05-09T06:15:31.596Z,100.00
2024-05-09T06:17:59.502Z,100.00
2024-05-09T06:20:34.843Z,100.00
2024-05-09T06:23:05.144Z,100.00
2024-05-09T06:25:32.443Z,100.00
2024-05-09T06:28:00.347Z,100.00
2024-05-09T06:30:36.809Z,100.00
2024-05-09T06:33:12.722Z,100.00
2024-05-09T06:35:41.959Z,100.00
2024-05-09T06:38:09.738Z,100.00
2024-05-09T06:40:40.814Z,100.00
2024-05-09T06:43:11.387Z,100.00
2024-05-09T06:45:40.079Z,100.00
2024-05-09T06:48:10.556Z,100.00
2024-05-09T06:50:39.370Z,100.00
2024-05-09T06:53:10.062Z,100.00
2024-05-09T06:55:37.831Z,100.00
2024-05-09T06:58:06.502Z,100.00
2024-05-09T07:00:38.968Z,100.00
2024-05-09T07:03:13.160Z,100.00
2024-05-09T07:05:42.364Z,100.00
2024-05-09T07:08:09.769Z,100.00
2024-05-09T07:10:37.427Z,100.00
2024-05-09T07:13:08.520Z,100.00
2024-05-09T07:15:35.646Z,100.00
2024-05-09T07:18:11.489Z,100.00
2024-05-09T07:20:39.092Z,100.00
2024-05-09T07:23:08.901Z,100.00
2024-05-09T07:25:36.117Z,100.00
2024-05-09T07:28:03.223Z,100.00
2024-05-09T07:30:34.438Z,100.00
2024-05-09T07:33:02.900Z,100.00
2024-05-09T07:35:33.736Z,100.00
2024-05-09T07:38:00.784Z,100.00
2024-05-09T07:40:33.373Z,100.00
2024-05-09T07:43:03.788Z,100.00
2024-05-09T07:45:47.772Z,100.00
2024-05-09T07:52:37.198Z,100.00
2024-05-09T07:53:45.455Z,100.00
2024-05-09T07:56:16.281Z,100.00
2024-05-09T07:58:44.216Z,100.00
2024-05-09T08:01:11.324Z,100.00
2024-05-09T08:03:38.692Z,100.00
2024-05-09T08:06:08.472Z,100.00
2024-05-09T08:08:35.424Z,100.00
2024-05-09T08:11:03.117Z,100.00
2024-05-09T08:13:30.168Z,100.00
2024-05-09T08:15:57.174Z,100.00
2024-05-09T08:18:24.538Z,100.00
2024-05-09T08:20:51.574Z,100.00
2024-05-09T08:23:21.183Z,100.00
2024-05-09T08:25:48.223Z,100.00
2024-05-09T08:28:15.672Z,100.00
2024-05-09T08:30:43.163Z,100.00
2024-05-09T08:33:10.505Z,100.00
2024-05-09T08:35:37.668Z,100.00
2024-05-09T08:38:06.802Z,97.60
2024-05-09T08:40:38.068Z,98.54
2024-05-09T08:43:08.155Z,99.11
2024-05-09T08:45:36.547Z,100.00
2024-05-09T08:48:08.211Z,100.00
2024-05-09T08:50:40.800Z,91.95
2024-05-09T08:53:08.868Z,95.44
2024-05-09T08:55:42.024Z,94.71
2024-05-09T08:58:16.039Z,91.49
2024-05-09T09:00:44.273Z,87.87
2024-05-09T09:03:15.322Z,90.56
2024-05-09T09:05:49.784Z,91.32
2024-05-09T09:08:16.843Z,90.49
2024-05-09T09:10:47.887Z,93.62
2024-05-09T09:13:14.970Z,91.69
2024-05-09T09:15:48.091Z,99.08
2024-05-09T09:18:16.215Z,96.95
2024-05-09T09:20:43.927Z,92.97
2024-05-09T09:23:11.191Z,94.17
2024-05-09T09:25:39.794Z,92.96
2024-05-09T09:28:10.120Z,94.35
2024-05-09T09:30:39.434Z,95.61
2024-05-09T09:33:08.281Z,95.94
2024-05-09T09:35:38.615Z,97.10
2024-05-09T09:38:07.342Z,98.10
2024-05-09T09:40:38.945Z,100.00
2024-05-09T09:43:16.867Z,100.00
2024-05-09T09:45:45.161Z,98.99
2024-05-09T09:48:15.327Z,98.02
2024-05-09T09:50:42.574Z,97.62
2024-05-09T09:53:10.448Z,97.19
2024-05-09T09:55:39.889Z,95.07
2024-05-09T09:58:09.745Z,92.03
2024-05-09T10:00:42.280Z,88.67
2024-05-09T10:03:09.289Z,89.07
2024-05-09T10:05:37.418Z,93.15
2024-05-09T10:08:07.054Z,89.38
2024-05-09T10:10:35.738Z,93.32
2024-05-09T10:13:04.376Z,90.25
2024-05-09T10:15:42.029Z,92.46
2024-05-09T10:18:12.153Z,98.23
2024-05-09T10:20:42.730Z,100.00
2024-05-09T10:23:26.502Z,99.77
2024-05-09T10:25:58.145Z,99.69
2024-05-09T10:28:28.452Z,100.00
2024-05-09T10:31:08.902Z,98.63
2024-05-09T10:33:51.436Z,98.12
2024-05-09T10:36:20.965Z,100.00
2024-05-09T10:38:49.162Z,100.00
2024-05-09T10:41:16.727Z,99.32
2024-05-09T10:43:43.687Z,99.48
2024-05-09T10:46:11.900Z,98.43
2024-05-09T10:48:43.215Z,95.72
2024-05-09T10:51:10.727Z,94.87
2024-05-09T10:53:41.608Z,94.02
2024-05-09T10:56:09.283Z,95.80
2024-05-09T10:58:36.387Z,100.00
2024-05-09T11:01:06.861Z,100.00
2024-05-09T11:03:35.508Z,98.65
2024-05-09T11:06:06.667Z,99.20
2024-05-09T11:08:35.155Z,98.99
2024-05-09T11:11:07.475Z,98.62
2024-05-09T11:13:37.072Z,93.18
2024-05-09T11:16:05.373Z,91.18
2024-05-09T11:18:36.713Z,92.13
2024-05-09T11:21:13.645Z,92.81
2024-05-09T11:23:41.435Z,93.92
2024-05-09T11:26:09.222Z,96.15
2024-05-09T11:28:36.271Z,97.07
2024-05-09T11:31:08.014Z,97.40
2024-05-09T11:33:37.317Z,100.00
2024-05-09T11:36:05.222Z,100.00
2024-05-09T11:38:35.299Z,100.00
2024-05-09T11:41:02.705Z,100.00
2024-05-09T11:43:29.778Z,100.00
2024-05-09T11:45:57.709Z,100.00
2024-05-09T11:48:25.456Z,100.00
2024-05-09T11:50:54.094Z,100.00
2024-05-09T11:53:21.226Z,99.36
2024-05-09T11:55:50.887Z,100.00
2024-05-09T11:58:19.215Z,100.00
2024-05-09T12:00:47.098Z,100.00
2024-05-09T12:03:14.583Z,100.00
2024-05-09T12:05:41.845Z,100.00
2024-05-09T12:08:09.544Z,100.00
2024-05-09T12:10:37.183Z,100.00
2024-05-09T12:13:07.738Z,100.00
2024-05-09T12:15:37.158Z,100.00
2024-05-09T12:18:05.936Z,100.00
2024-05-09T12:20:37.545Z,100.00
2024-05-09T12:23:07.439Z,100.00
2024-05-09T12:25:34.901Z,100.00
2024-05-09T12:28:03.132Z,100.00
2024-05-09T12:30:37.686Z,100.00
2024-05-09T12:33:08.416Z,100.00
2024-05-09T12:35:35.772Z,100.00
2024-05-09T12:38:02.948Z,100.00
2024-05-09T12:40:36.005Z,100.00
2024-05-09T12:43:06.495Z,100.00
2024-05-09T12:45:36.516Z,100.00
2024-05-09T12:48:06.937Z,100.00
2024-05-09T12:50:34.851Z,100.00
2024-05-09T12:53:03.165Z,100.00
2024-05-09T12:55:37.293Z,100.00
2024-05-09T12:58:12.257Z,100.00
2024-05-09T13:00:41.973Z,100.00
2024-05-09T13:03:09.236Z,100.00
2024-05-09T13:05:36.494Z,100.00
2024-05-09T13:08:04.545Z,100.00
2024-05-09T13:10:35.023Z,100.00
2024-05-09T13:13:02.446Z,100.00
2024-05-09T13:15:29.797Z,100.00
2024-05-09T13:18:02.741Z,100.00
2024-05-09T13:20:33.806Z,100.00
2024-05-09T13:23:03.353Z,100.00
2024-05-09T13:25:30.359Z,100.00
2024-05-09T13:27:57.963Z,100.00
2024-05-09T13:30:33.789Z,100.00
2024-05-09T13:33:08.957Z,100.00
2024-05-09T13:35:38.272Z,100.00
2024-05-09T13:38:05.546Z,100.00
2024-05-09T13:40:35.253Z,100.00
2024-05-09T13:43:03.710Z,100.00
2024-05-09T13:45:30.909Z,100.00
2024-05-09T13:47:58.291Z,100.00
2024-05-09T13:50:33.942Z,100.00
2024-05-09T13:53:03.415Z,100.00
2024-05-09T13:55:30.556Z,100.00
2024-05-09T13:57:57.628Z,100.00
2024-05-09T14:02:54.666Z,100.00
2024-05-09T14:05:21.764Z,100.00
2024-05-09T14:07:51.615Z,100.00
2024-05-09T14:10:23.419Z,100.00
2024-05-09T14:12:56.223Z,100.00
2024-05-09T14:15:23.137Z,100.00
2024-05-09T14:17:50.115Z,100.00
2024-05-09T14:20:27.979Z,100.00
2024-05-09T14:23:01.175Z,100.00
2024-05-09T14:25:28.755Z,100.00
2024-05-09T14:27:57.455Z,100.00
2024-05-09T14:30:31.199Z,100.00
2024-05-09T14:33:04.459Z,100.00
2024-05-09T14:35:31.626Z,100.00
2024-05-09T14:38:01.538Z,100.00
2024-05-09T14:43:02.615Z,100.00
2024-05-09T14:45:30.248Z,100.00
2024-05-09T14:47:57.550Z,100.00
2024-05-09T14:50:34.445Z,100.00
2024-05-09T14:53:08.297Z,100.00
2024-05-09T14:55:37.221Z,100.00
2024-05-09T14:58:06.826Z,100.00
2024-05-09T15:00:38.504Z,100.00
2024-05-09T15:03:07.325Z,100.00
2024-05-09T15:05:34.596Z,100.00
2024-05-09T15:08:01.759Z,100.00
2024-05-09T15:10:35.230Z,100.00
2024-05-09T15:13:04.150Z,100.00
2024-05-09T15:15:31.754Z,100.00
2024-05-09T15:17:59.266Z,100.00
2024-05-09T15:20:33.478Z,100.00
2024-05-09T15:23:04.836Z,100.00
2024-05-09T15:25:37.492Z,100.00
2024-05-09T15:28:05.296Z,100.00
2024-05-09T15:30:34.003Z,100.00
2024-05-09T15:33:06.025Z,100.00
2024-05-09T15:35:34.294Z,100.00
2024-05-09T15:38:03.352Z,100.00
2024-05-09T15:40:37.734Z,100.00
2024-05-09T15:43:11.284Z,100.00
2024-05-09T15:45:39.683Z,100.00
2024-05-09T15:48:08.848Z,100.00
2024-05-09T15:50:39.931Z,100.00
2024-05-09T15:53:13.384Z,100.00
2024-05-09T15:55:41.419Z,100.00
2024-05-09T15:58:11.619Z,100.00
2024-05-09T16:00:42.077Z,100.00
2024-05-09T16:03:11.782Z,100.00
2024-05-09T16:05:41.007Z,100.00
2024-05-09T16:08:08.699Z,100.00
2024-05-09T16:10:37.603Z,100.00
2024-05-09T16:13:05.842Z,100.00
2024-05-09T16:15:35.479Z,100.00
2024-05-09T16:18:02.743Z,100.00
2024-05-09T16:20:38.454Z,100.00
2024-05-09T16:23:08.695Z,100.00
2024-05-09T16:25:36.169Z,100.00
2024-05-09T16:28:09.935Z,100.00
2024-05-09T16:30:41.020Z,100.00
2024-05-09T16:33:08.777Z,100.00
2024-05-09T16:35:37.139Z,100.00
2024-05-09T16:38:04.814Z,100.00
2024-05-09T16:40:38.439Z,100.00
2024-05-09T16:43:08.547Z,100.00
2024-05-09T16:45:36.060Z,100.00
2024-05-09T16:48:07.116Z,100.00
2024-05-09T16:50:35.717Z,100.00
2024-05-09T16:53:06.990Z,100.00
2024-05-09T16:55:34.634Z,100.00
2024-05-09T16:58:02.192Z,100.00
2024-05-09T17:00:39.184Z,100.00
2024-05-09T17:03:14.833Z,100.00
2024-05-09T17:05:43.190Z,100.00
2024-05-09T17:08:10.602Z,100.00
2024-05-09T17:10:37.789Z,100.00
2024-05-09T17:13:07.257Z,100.00
2024-05-09T17:15:35.790Z,100.00
2024-05-09T17:18:04.028Z,100.00
2024-05-09T17:20:36.407Z,100.00
2024-05-09T17:23:14.185Z,100.00
2024-05-09T17:25:41.807Z,100.00
2024-05-09T17:28:09.511Z,100.00
2024-05-09T17:30:39.037Z,100.00
2024-05-09T17:33:09.749Z,100.00
2024-05-09T17:35:40.634Z,100.00
2024-05-09T17:38:08.063Z,100.00
2024-05-09T17:40:37.281Z,100.00
2024-05-09T17:43:07.047Z,100.00
2024-05-09T17:45:37.797Z,100.00
2024-05-09T17:48:05.619Z,100.00
2024-05-09T17:50:36.008Z,100.00
2024-05-09T17:53:07.266Z,100.00
2024-05-09T17:55:34.873Z,100.00
2024-05-09T17:58:02.336Z,100.00
2024-05-09T18:00:37.530Z,100.00
2024-05-09T18:03:08.977Z,100.00
2024-05-09T18:05:37.399Z,100.00
2024-05-09T18:08:08.676Z,100.00
2024-05-09T18:10:38.760Z,100.00
2024-05-09T18:13:08.317Z,100.00
2024-05-09T18:15:36.056Z,100.00
2024-05-09T18:18:04.006Z,100.00
2024-05-09T18:20:40.281Z,100.00
2024-05-09T18:23:16.394Z,100.00
2024-05-09T18:25:44.812Z,100.00
2024-05-09T18:28:14.961Z,100.00
2024-05-09T18:30:41.912Z,100.00
2024-05-09T18:33:10.868Z,100.00
2024-05-09T18:35:38.382Z,100.00
2024-05-09T18:38:05.921Z,100.00
2024-05-09T18:40:38.063Z,100.00
2024-05-09T18:43:07.959Z,100.00
2024-05-09T18:45:37.080Z,100.00
2024-05-09T18:48:06.154Z,100.00
2024-05-09T18:50:37.628Z,100.00
2024-05-09T18:53:08.100Z,100.00
2024-05-09T18:55:37.747Z,100.00
2024-05-09T18:58:05.471Z,100.00
2024-05-09T19:00:36.437Z,100.00
2024-05-09T19:03:09.407Z,100.00
2024-05-09T19:05:39.402Z,100.00
2024-05-09T19:08:07.895Z,100.00
2024-05-09T19:10:38.840Z,100.00
2024-05-09T19:13:10.567Z,100.00
2024-05-09T19:15:40.558Z,100.00
2024-05-09T19:18:08.559Z,100.00
2024-05-09T19:20:36.821Z,100.00
2024-05-09T19:23:05.897Z,100.00
2024-05-09T19:25:33.672Z,100.00
2024-05-09T19:28:04.019Z,100.00
2024-05-09T19:30:38.551Z,100.00
2024-05-09T19:33:09.973Z,100.00
2024-05-09T19:35:37.990Z,100.00
2024-05-09T19:38:05.597Z,100.00
2024-05-09T19:40:34.181Z,100.00
2024-05-09T19:43:06.099Z,100.00
2024-05-09T19:45:35.763Z,100.00
2024-05-09T19:48:04.226Z,100.00
2024-05-09T19:50:39.653Z,100.00
2024-05-09T19:53:11.428Z,100.00
2024-05-09T19:55:38.721Z,100.00
2024-05-09T19:58:08.591Z,100.00
2024-05-09T20:00:39.573Z,100.00
2024-05-09T20:03:09.871Z,100.00
2024-05-09T20:05:37.933Z,100.00
2024-05-09T20:08:06.284Z,100.00
2024-05-09T20:10:36.748Z,100.00
2024-05-09T20:13:08.350Z,100.00
2024-05-09T20:15:37.082Z,100.00
2024-05-09T20:18:05.338Z,100.00
2024-05-09T20:20:39.065Z,100.00
2024-05-09T20:23:09.346Z,100.00
2024-05-09T20:25:36.809Z,100.00
2024-05-09T20:28:04.341Z,100.00
2024-05-09T20:30:35.163Z,100.00
2024-05-09T20:33:04.917Z,100.00
2024-05-09T20:35:33.434Z,100.00
2024-05-09T20:38:01.982Z,100.00
2024-05-09T20:40:34.175Z,100.00
2024-05-09T20:43:05.586Z,100.00
2024-05-09T20:45:36.127Z,100.00
2024-05-09T20:48:03.744Z,100.00
2024-05-09T20:50:37.817Z,100.00
2024-05-09T20:53:13.743Z,100.00
2024-05-09T20:55:42.377Z,100.00
2024-05-09T20:58:10.239Z,100.00
2024-05-09T21:00:43.608Z,100.00
2024-05-09T21:03:13.873Z,100.00
2024-05-09T21:05:42.225Z,100.00
2024-05-09T21:08:09.450Z,100.00
2024-05-09T21:10:37.180Z,100.00
2024-05-09T21:13:05.832Z,100.00
2024-05-09T21:15:33.765Z,100.00
2024-05-09T21:18:04.134Z,100.00
2024-05-09T21:20:33.423Z,100.00
2024-05-09T21:23:01.617Z,100.00
2024-05-09T21:25:29.443Z,100.00
2024-05-09T21:27:56.705Z,100.00
2024-05-09T21:30:32.613Z,100.00
2024-05-09T21:33:12.531Z,100.00
2024-05-09T21:35:41.289Z,100.00
2024-05-09T21:38:08.605Z,100.00
2024-05-09T21:40:36.908Z,100.00
2024-05-09T21:43:08.190Z,100.00
2024-05-09T21:45:36.258Z,100.00
2024-05-09T21:48:04.285Z,100.00
2024-05-09T21:50:40.026Z,100.00
2024-05-09T21:53:09.521Z,100.00
2024-05-09T21:55:36.587Z,100.00
2024-05-09T21:58:03.871Z,100.00
2024-05-09T22:00:36.821Z,100.00
2024-05-09T22:03:06.715Z,100.00
2024-05-09T22:05:37.760Z,100.00
2024-05-09T22:08:05.720Z,100.00
2024-05-09T22:10:35.361Z,100.00
2024-05-09T22:13:05.087Z,100.00
2024-05-09T22:15:35.477Z,100.00
2024-05-09T22:18:03.385Z,100.00
2024-05-09T22:20:36.826Z,100.00
2024-05-09T22:23:09.100Z,100.00
2024-05-09T22:25:36.719Z,100.00
2024-05-09T22:28:04.431Z,100.00
2024-05-09T22:30:36.601Z,100.00
2024-05-09T22:33:06.716Z,100.00
2024-05-09T22:35:33.937Z,100.00
2024-05-09T22:38:01.186Z,100.00
2024-05-09T22:40:41.664Z,100.00
2024-05-09T22:43:17.898Z,100.00
2024-05-09T22:45:47.116Z,100.00
2024-05-09T22:48:14.224Z,100.00
2024-05-09T22:50:41.428Z,100.00
2024-05-09T22:53:08.540Z,100.00
2024-05-09T22:55:38.160Z,100.00
2024-05-09T22:58:05.405Z,100.00
2024-05-09T23:00:35.470Z,100.00
2024-05-09T23:03:03.035Z,100.00
2024-05-09T23:05:30.941Z,100.00
2024-05-09T23:07:58.183Z,100.00
2024-05-09T23:10:32.184Z,100.00
2024-05-09T23:13:07.719Z,100.00
2024-05-09T23:15:36.305Z,100.00
2024-05-09T23:18:03.612Z,100.00
2024-05-09T23:20:37.042Z,100.00
2024-05-09T23:23:06.780Z,100.00
2024-05-09T23:25:34.031Z,100.00
2024-05-09T23:28:01.248Z,100.00
2024-05-09T23:30:37.514Z,100.00
2024-05-09T23:33:08.094Z,100.00
2024-05-09T23:35:35.719Z,100.00
2024-05-09T23:38:02.768Z,100.00
2024-05-09T23:40:38.290Z,100.00
2024-05-09T23:43:08.737Z,100.00
2024-05-09T23:45:39.005Z,100.00
2024-05-09T23:48:09.458Z,100.00
2024-05-09T23:50:38.692Z,100.00
2024-05-09T23:53:09.186Z,100.00
2024-05-09T23:55:37.837Z,100.00
2024-05-09T23:58:05.914Z,100.00
